sensor_id;sensor_type;location;lat;lon;timestamp;P1;durP1;ratioP1;P2;durP2;ratioP2
19879;SDS011;10102;50.828;4.416;2023-04-28T00:00:54;32.70;;;17.33;;
19879;SDS011;10102;50.828;4.416;2023-04-28T00:03:20;28.70;;;17.35;;
19879;SDS011;10102;50.828;4.416;2023-04-28T00:05:46;34.78;;;19.02;;
19879;SDS011;10102;50.828;4.416;2023-04-28T00:08:13;29.98;;;18.25;;
19879;SDS011;10102;50.828;4.416;2023-04-28T00:10:39;29.50;;;19.00;;
19879;SDS011;10102;50.828;4.416;2023-04-28T00:13:05;31.05;;;18.58;;
19879;SDS011;10102;50.828;4.416;2023-04-28T00:15:31;31.70;;;18.42;;
19879;SDS011;10102;50.828;4.416;2023-04-28T00:17:56;34.17;;;19.33;;
19879;SDS011;10102;50.828;4.416;2023-04-28T00:20:22;34.55;;;19.77;;
19879;SDS011;10102;50.828;4.416;2023-04-28T00:22:48;32.47;;;19.58;;
19879;SDS011;10102;50.828;4.416;2023-04-28T00:25:14;34.72;;;20.80;;
19879;SDS011;10102;50.828;4.416;2023-04-28T00:27:40;33.30;;;20.83;;
19879;SDS011;10102;50.828;4.416;2023-04-28T00:30:06;33.10;;;19.67;;
19879;SDS011;10102;50.828;4.416;2023-04-28T00:32:32;40.25;;;21.65;;
19879;SDS011;10102;50.828;4.416;2023-04-28T00:34:58;40.53;;;20.95;;
19879;SDS011;10102;50.828;4.416;2023-04-28T00:37:24;36.63;;;21.15;;
19879;SDS011;10102;50.828;4.416;2023-04-28T00:39:58;40.10;;;22.20;;
19879;SDS011;10102;50.828;4.416;2023-04-28T00:42:24;37.45;;;21.05;;
19879;SDS011;10102;50.828;4.416;2023-04-28T00:44:50;40.05;;;21.73;;
19879;SDS011;10102;50.828;4.416;2023-04-28T00:47:16;36.05;;;23.30;;
19879;SDS011;10102;50.828;4.416;2023-04-28T00:49:43;35.00;;;21.92;;
19879;SDS011;10102;50.828;4.416;2023-04-28T00:52:09;39.85;;;23.20;;
19879;SDS011;10102;50.828;4.416;2023-04-28T00:54:35;35.72;;;22.08;;
19879;SDS011;10102;50.828;4.416;2023-04-28T00:57:01;41.55;;;23.52;;
19879;SDS011;10102;50.828;4.416;2023-04-28T00:59:29;42.35;;;23.02;;
19879;SDS011;10102;50.828;4.416;2023-04-28T01:01:55;50.92;;;21.85;;
19879;SDS011;10102;50.828;4.416;2023-04-28T01:04:21;46.65;;;23.60;;
19879;SDS011;10102;50.828;4.416;2023-04-28T01:06:47;40.03;;;24.70;;
19879;SDS011;10102;50.828;4.416;2023-04-28T01:09:15;37.67;;;23.58;;
19879;SDS011;10102;50.828;4.416;2023-04-28T01:11:41;40.75;;;23.20;;
19879;SDS011;10102;50.828;4.416;2023-04-28T01:14:07;38.50;;;23.67;;
19879;SDS011;10102;50.828;4.416;2023-04-28T01:16:32;39.10;;;23.88;;
19879;SDS011;10102;50.828;4.416;2023-04-28T01:18:58;43.65;;;23.88;;
19879;SDS011;10102;50.828;4.416;2023-04-28T01:21:25;46.47;;;23.80;;
19879;SDS011;10102;50.828;4.416;2023-04-28T01:23:54;42.13;;;22.42;;
19879;SDS011;10102;50.828;4.416;2023-04-28T01:26:21;37.38;;;23.65;;
19879;SDS011;10102;50.828;4.416;2023-04-28T01:28:47;38.90;;;22.27;;
19879;SDS011;10102;50.828;4.416;2023-04-28T01:31:12;43.25;;;24.73;;
19879;SDS011;10102;50.828;4.416;2023-04-28T01:33:38;38.00;;;21.52;;
19879;SDS011;10102;50.828;4.416;2023-04-28T01:36:04;40.97;;;23.42;;
19879;SDS011;10102;50.828;4.416;2023-04-28T01:38:30;36.58;;;23.42;;
19879;SDS011;10102;50.828;4.416;2023-04-28T01:40:56;37.08;;;22.10;;
19879;SDS011;10102;50.828;4.416;2023-04-28T01:43:22;35.72;;;22.65;;
19879;SDS011;10102;50.828;4.416;2023-04-28T01:45:48;40.33;;;23.77;;
19879;SDS011;10102;50.828;4.416;2023-04-28T01:48:14;42.92;;;24.02;;
19879;SDS011;10102;50.828;4.416;2023-04-28T01:50:39;36.92;;;22.80;;
19879;SDS011;10102;50.828;4.416;2023-04-28T01:53:05;44.47;;;23.58;;
19879;SDS011;10102;50.828;4.416;2023-04-28T01:55:31;41.05;;;21.67;;
19879;SDS011;10102;50.828;4.416;2023-04-28T01:57:57;36.88;;;23.13;;
19879;SDS011;10102;50.828;4.416;2023-04-28T02:00:23;35.65;;;22.38;;
19879;SDS011;10102;50.828;4.416;2023-04-28T02:02:48;41.80;;;24.17;;
19879;SDS011;10102;50.828;4.416;2023-04-28T02:05:14;42.10;;;23.38;;
19879;SDS011;10102;50.828;4.416;2023-04-28T02:07:40;38.25;;;24.02;;
19879;SDS011;10102;50.828;4.416;2023-04-28T02:10:06;37.78;;;24.55;;
19879;SDS011;10102;50.828;4.416;2023-04-28T02:12:33;40.58;;;24.63;;
19879;SDS011;10102;50.828;4.416;2023-04-28T02:14:59;37.83;;;23.95;;
19879;SDS011;10102;50.828;4.416;2023-04-28T02:17:25;39.83;;;24.40;;
19879;SDS011;10102;50.828;4.416;2023-04-28T02:19:54;49.55;;;25.38;;
19879;SDS011;10102;50.828;4.416;2023-04-28T02:22:23;39.30;;;24.52;;
19879;SDS011;10102;50.828;4.416;2023-04-28T02:24:49;43.95;;;26.27;;
19879;SDS011;10102;50.828;4.416;2023-04-28T02:27:16;43.42;;;26.33;;
19879;SDS011;10102;50.828;4.416;2023-04-28T02:29:42;41.58;;;25.48;;
19879;SDS011;10102;50.828;4.416;2023-04-28T02:32:08;47.80;;;25.98;;
19879;SDS011;10102;50.828;4.416;2023-04-28T02:34:33;48.83;;;27.67;;
19879;SDS011;10102;50.828;4.416;2023-04-28T02:37:00;44.72;;;25.45;;
19879;SDS011;10102;50.828;4.416;2023-04-28T02:39:25;42.60;;;26.30;;
19879;SDS011;10102;50.828;4.416;2023-04-28T02:41:53;43.03;;;25.40;;
19879;SDS011;10102;50.828;4.416;2023-04-28T02:44:20;40.03;;;26.38;;
19879;SDS011;10102;50.828;4.416;2023-04-28T02:46:45;43.72;;;25.88;;
19879;SDS011;10102;50.828;4.416;2023-04-28T02:49:11;45.50;;;27.05;;
19879;SDS011;10102;50.828;4.416;2023-04-28T02:51:37;44.03;;;23.95;;
19879;SDS011;10102;50.828;4.416;2023-04-28T02:54:03;43.10;;;25.40;;
19879;SDS011;10102;50.828;4.416;2023-04-28T02:56:29;47.45;;;27.60;;
19879;SDS011;10102;50.828;4.416;2023-04-28T02:58:55;44.38;;;26.67;;
19879;SDS011;10102;50.828;4.416;2023-04-28T03:01:22;45.60;;;26.38;;
19879;SDS011;10102;50.828;4.416;2023-04-28T03:03:48;42.08;;;25.50;;
19879;SDS011;10102;50.828;4.416;2023-04-28T03:06:14;46.28;;;26.40;;
19879;SDS011;10102;50.828;4.416;2023-04-28T03:08:39;46.47;;;26.17;;
19879;SDS011;10102;50.828;4.416;2023-04-28T03:11:05;42.80;;;25.38;;
19879;SDS011;10102;50.828;4.416;2023-04-28T03:13:31;41.60;;;25.67;;
19879;SDS011;10102;50.828;4.416;2023-04-28T03:15:56;42.03;;;25.55;;
19879;SDS011;10102;50.828;4.416;2023-04-28T03:18:22;43.08;;;26.10;;
19879;SDS011;10102;50.828;4.416;2023-04-28T03:20:48;38.60;;;24.55;;
19879;SDS011;10102;50.828;4.416;2023-04-28T03:23:14;41.45;;;26.65;;
19879;SDS011;10102;50.828;4.416;2023-04-28T03:25:40;42.03;;;25.75;;
19879;SDS011;10102;50.828;4.416;2023-04-28T03:28:06;42.33;;;25.33;;
19879;SDS011;10102;50.828;4.416;2023-04-28T03:30:32;43.65;;;25.92;;
19879;SDS011;10102;50.828;4.416;2023-04-28T03:32:58;45.28;;;25.58;;
19879;SDS011;10102;50.828;4.416;2023-04-28T03:35:23;43.15;;;25.00;;
19879;SDS011;10102;50.828;4.416;2023-04-28T03:37:49;41.38;;;26.20;;
19879;SDS011;10102;50.828;4.416;2023-04-28T03:40:15;45.85;;;26.98;;
19879;SDS011;10102;50.828;4.416;2023-04-28T03:42:40;44.95;;;26.52;;
19879;SDS011;10102;50.828;4.416;2023-04-28T03:45:07;41.05;;;27.23;;
19879;SDS011;10102;50.828;4.416;2023-04-28T03:47:33;41.33;;;25.08;;
19879;SDS011;10102;50.828;4.416;2023-04-28T03:49:59;43.78;;;26.10;;
19879;SDS011;10102;50.828;4.416;2023-04-28T03:52:25;42.80;;;26.08;;
19879;SDS011;10102;50.828;4.416;2023-04-28T03:54:51;41.97;;;24.65;;
19879;SDS011;10102;50.828;4.416;2023-04-28T03:57:17;42.97;;;26.35;;
19879;SDS011;10102;50.828;4.416;2023-04-28T03:59:42;44.28;;;25.90;;
19879;SDS011;10102;50.828;4.416;2023-04-28T04:02:08;47.30;;;27.35;;
19879;SDS011;10102;50.828;4.416;2023-04-28T04:04:34;40.47;;;26.15;;
19879;SDS011;10102;50.828;4.416;2023-04-28T04:07:00;42.25;;;25.85;;
19879;SDS011;10102;50.828;4.416;2023-04-28T04:09:26;47.78;;;26.75;;
19879;SDS011;10102;50.828;4.416;2023-04-28T04:11:52;50.95;;;27.30;;
19879;SDS011;10102;50.828;4.416;2023-04-28T04:14:18;46.22;;;27.63;;
19879;SDS011;10102;50.828;4.416;2023-04-28T04:16:43;46.47;;;26.85;;
19879;SDS011;10102;50.828;4.416;2023-04-28T04:19:11;38.72;;;25.45;;
19879;SDS011;10102;50.828;4.416;2023-04-28T04:21:37;40.67;;;26.50;;
19879;SDS011;10102;50.828;4.416;2023-04-28T04:24:03;43.35;;;27.27;;
19879;SDS011;10102;50.828;4.416;2023-04-28T04:26:29;47.75;;;28.35;;
19879;SDS011;10102;50.828;4.416;2023-04-28T04:28:55;47.88;;;27.88;;
19879;SDS011;10102;50.828;4.416;2023-04-28T04:31:20;48.45;;;27.48;;
19879;SDS011;10102;50.828;4.416;2023-04-28T04:33:46;45.88;;;27.40;;
19879;SDS011;10102;50.828;4.416;2023-04-28T04:36:13;50.53;;;28.40;;
19879;SDS011;10102;50.828;4.416;2023-04-28T04:38:38;41.25;;;26.33;;
19879;SDS011;10102;50.828;4.416;2023-04-28T04:41:04;45.85;;;26.77;;
19879;SDS011;10102;50.828;4.416;2023-04-28T04:43:30;46.38;;;27.63;;
19879;SDS011;10102;50.828;4.416;2023-04-28T04:45:55;44.80;;;27.98;;
19879;SDS011;10102;50.828;4.416;2023-04-28T04:48:21;41.50;;;25.90;;
19879;SDS011;10102;50.828;4.416;2023-04-28T04:50:47;38.90;;;25.02;;
19879;SDS011;10102;50.828;4.416;2023-04-28T04:53:13;40.78;;;26.35;;
19879;SDS011;10102;50.828;4.416;2023-04-28T04:55:39;41.63;;;26.20;;
19879;SDS011;10102;50.828;4.416;2023-04-28T04:58:05;46.28;;;27.00;;
19879;SDS011;10102;50.828;4.416;2023-04-28T05:00:31;41.88;;;25.63;;
19879;SDS011;10102;50.828;4.416;2023-04-28T05:02:57;40.55;;;25.48;;
19879;SDS011;10102;50.828;4.416;2023-04-28T05:05:23;41.90;;;26.70;;
19879;SDS011;10102;50.828;4.416;2023-04-28T05:07:49;44.50;;;26.92;;
19879;SDS011;10102;50.828;4.416;2023-04-28T05:10:15;44.72;;;27.60;;
19879;SDS011;10102;50.828;4.416;2023-04-28T05:12:41;42.15;;;27.38;;
19879;SDS011;10102;50.828;4.416;2023-04-28T05:15:08;41.08;;;26.42;;
19879;SDS011;10102;50.828;4.416;2023-04-28T05:17:35;44.13;;;26.20;;
19879;SDS011;10102;50.828;4.416;2023-04-28T05:20:00;40.50;;;26.05;;
19879;SDS011;10102;50.828;4.416;2023-04-28T05:22:26;42.92;;;25.08;;
19879;SDS011;10102;50.828;4.416;2023-04-28T05:24:52;38.35;;;24.20;;
19879;SDS011;10102;50.828;4.416;2023-04-28T05:27:18;38.50;;;24.70;;
19879;SDS011;10102;50.828;4.416;2023-04-28T05:29:44;32.15;;;19.90;;
19879;SDS011;10102;50.828;4.416;2023-04-28T05:32:09;30.75;;;18.83;;
19879;SDS011;10102;50.828;4.416;2023-04-28T05:34:35;16.60;;;10.65;;
19879;SDS011;10102;50.828;4.416;2023-04-28T05:37:01;8.60;;;6.55;;
19879;SDS011;10102;50.828;4.416;2023-04-28T05:39:27;10.95;;;6.80;;
19879;SDS011;10102;50.828;4.416;2023-04-28T05:41:53;7.28;;;6.57;;
19879;SDS011;10102;50.828;4.416;2023-04-28T05:44:18;11.18;;;7.32;;
19879;SDS011;10102;50.828;4.416;2023-04-28T05:46:44;9.95;;;7.18;;
19879;SDS011;10102;50.828;4.416;2023-04-28T05:49:10;10.68;;;8.00;;
19879;SDS011;10102;50.828;4.416;2023-04-28T05:51:36;10.68;;;8.25;;
19879;SDS011;10102;50.828;4.416;2023-04-28T05:54:02;9.35;;;7.20;;
19879;SDS011;10102;50.828;4.416;2023-04-28T05:56:28;11.50;;;8.32;;
19879;SDS011;10102;50.828;4.416;2023-04-28T05:58:54;10.82;;;7.43;;
19879;SDS011;10102;50.828;4.416;2023-04-28T06:01:21;10.98;;;7.97;;
19879;SDS011;10102;50.828;4.416;2023-04-28T06:03:46;9.93;;;8.02;;
19879;SDS011;10102;50.828;4.416;2023-04-28T06:06:12;12.75;;;8.73;;
19879;SDS011;10102;50.828;4.416;2023-04-28T06:08:38;10.48;;;7.63;;
19879;SDS011;10102;50.828;4.416;2023-04-28T06:11:04;12.07;;;8.10;;
19879;SDS011;10102;50.828;4.416;2023-04-28T06:13:31;8.57;;;7.63;;
19879;SDS011;10102;50.828;4.416;2023-04-28T06:15:57;10.73;;;7.10;;
19879;SDS011;10102;50.828;4.416;2023-04-28T06:18:23;10.75;;;7.55;;
19879;SDS011;10102;50.828;4.416;2023-04-28T06:20:49;10.45;;;7.97;;
19879;SDS011;10102;50.828;4.416;2023-04-28T06:23:15;10.35;;;7.60;;
19879;SDS011;10102;50.828;4.416;2023-04-28T06:25:41;9.85;;;7.40;;
19879;SDS011;10102;50.828;4.416;2023-04-28T06:28:06;10.20;;;7.60;;
19879;SDS011;10102;50.828;4.416;2023-04-28T06:30:32;10.20;;;7.20;;
19879;SDS011;10102;50.828;4.416;2023-04-28T06:32:59;12.45;;;7.35;;
19879;SDS011;10102;50.828;4.416;2023-04-28T06:35:25;9.95;;;6.95;;
19879;SDS011;10102;50.828;4.416;2023-04-28T06:37:51;11.10;;;6.32;;
19879;SDS011;10102;50.828;4.416;2023-04-28T06:40:18;7.65;;;5.93;;
19879;SDS011;10102;50.828;4.416;2023-04-28T06:42:44;8.43;;;6.30;;
19879;SDS011;10102;50.828;4.416;2023-04-28T06:45:09;8.35;;;6.63;;
19879;SDS011;10102;50.828;4.416;2023-04-28T06:47:35;7.85;;;5.97;;
19879;SDS011;10102;50.828;4.416;2023-04-28T06:50:02;8.90;;;6.60;;
19879;SDS011;10102;50.828;4.416;2023-04-28T06:52:28;7.35;;;6.20;;
19879;SDS011;10102;50.828;4.416;2023-04-28T06:54:54;11.95;;;6.20;;
19879;SDS011;10102;50.828;4.416;2023-04-28T06:57:20;8.90;;;6.43;;
19879;SDS011;10102;50.828;4.416;2023-04-28T06:59:46;8.35;;;5.93;;
19879;SDS011;10102;50.828;4.416;2023-04-28T07:02:12;5.93;;;5.38;;
19879;SDS011;10102;50.828;4.416;2023-04-28T07:04:38;6.75;;;5.82;;
19879;SDS011;10102;50.828;4.416;2023-04-28T07:07:04;6.95;;;5.93;;
19879;SDS011;10102;50.828;4.416;2023-04-28T07:09:35;6.35;;;5.25;;
19879;SDS011;10102;50.828;4.416;2023-04-28T07:12:01;7.45;;;4.82;;
19879;SDS011;10102;50.828;4.416;2023-04-28T07:14:28;5.30;;;4.72;;
19879;SDS011;10102;50.828;4.416;2023-04-28T07:16:54;7.43;;;5.15;;
19879;SDS011;10102;50.828;4.416;2023-04-28T07:19:20;6.72;;;5.28;;
19879;SDS011;10102;50.828;4.416;2023-04-28T07:21:45;5.65;;;5.15;;
19879;SDS011;10102;50.828;4.416;2023-04-28T07:24:11;7.20;;;5.20;;
19879;SDS011;10102;50.828;4.416;2023-04-28T07:26:37;8.93;;;6.05;;
19879;SDS011;10102;50.828;4.416;2023-04-28T07:29:03;8.60;;;5.88;;
19879;SDS011;10102;50.828;4.416;2023-04-28T07:31:28;8.07;;;5.68;;
19879;SDS011;10102;50.828;4.416;2023-04-28T07:33:54;6.53;;;5.53;;
19879;SDS011;10102;50.828;4.416;2023-04-28T07:36:20;6.40;;;5.45;;
19879;SDS011;10102;50.828;4.416;2023-04-28T07:38:46;7.53;;;6.15;;
19879;SDS011;10102;50.828;4.416;2023-04-28T07:41:12;5.90;;;5.25;;
19879;SDS011;10102;50.828;4.416;2023-04-28T07:43:38;5.68;;;5.15;;
19879;SDS011;10102;50.828;4.416;2023-04-28T07:46:05;8.65;;;6.38;;
19879;SDS011;10102;50.828;4.416;2023-04-28T07:48:32;7.10;;;5.80;;
19879;SDS011;10102;50.828;4.416;2023-04-28T07:50:59;5.15;;;4.32;;
19879;SDS011;10102;50.828;4.416;2023-04-28T07:53:25;4.15;;;3.75;;
19879;SDS011;10102;50.828;4.416;2023-04-28T07:55:51;3.65;;;3.33;;
19879;SDS011;10102;50.828;4.416;2023-04-28T07:58:17;3.85;;;3.47;;
19879;SDS011;10102;50.828;4.416;2023-04-28T08:00:42;3.20;;;2.90;;
19879;SDS011;10102;50.828;4.416;2023-04-28T08:03:08;3.28;;;2.88;;
19879;SDS011;10102;50.828;4.416;2023-04-28T08:05:34;3.60;;;3.03;;
19879;SDS011;10102;50.828;4.416;2023-04-28T08:08:00;3.83;;;2.65;;
19879;SDS011;10102;50.828;4.416;2023-04-28T08:10:26;3.50;;;2.72;;
19879;SDS011;10102;50.828;4.416;2023-04-28T08:12:52;4.18;;;2.70;;
19879;SDS011;10102;50.828;4.416;2023-04-28T08:15:18;4.03;;;2.30;;
19879;SDS011;10102;50.828;4.416;2023-04-28T08:17:44;3.90;;;2.08;;
19879;SDS011;10102;50.828;4.416;2023-04-28T08:20:10;5.50;;;1.98;;
19879;SDS011;10102;50.828;4.416;2023-04-28T08:22:39;2.15;;;1.92;;
19879;SDS011;10102;50.828;4.416;2023-04-28T08:25:06;6.57;;;1.65;;
19879;SDS011;10102;50.828;4.416;2023-04-28T08:27:32;1.63;;;1.52;;
19879;SDS011;10102;50.828;4.416;2023-04-28T08:29:58;1.92;;;1.50;;
19879;SDS011;10102;50.828;4.416;2023-04-28T08:32:24;2.13;;;1.70;;
19879;SDS011;10102;50.828;4.416;2023-04-28T08:34:50;3.13;;;1.45;;
19879;SDS011;10102;50.828;4.416;2023-04-28T08:37:15;9.60;;;1.70;;
19879;SDS011;10102;50.828;4.416;2023-04-28T08:39:41;2.10;;;1.70;;
19879;SDS011;10102;50.828;4.416;2023-04-28T08:42:07;2.60;;;1.63;;
19879;SDS011;10102;50.828;4.416;2023-04-28T08:44:37;2.38;;;1.45;;
19879;SDS011;10102;50.828;4.416;2023-04-28T08:47:04;1.70;;;1.38;;
19879;SDS011;10102;50.828;4.416;2023-04-28T08:49:39;3.63;;;1.55;;
19879;SDS011;10102;50.828;4.416;2023-04-28T08:52:08;4.25;;;1.30;;
19879;SDS011;10102;50.828;4.416;2023-04-28T08:54:38;1.02;;;0.93;;
19879;SDS011;10102;50.828;4.416;2023-04-28T08:57:07;0.80;;;0.80;;
19879;SDS011;10102;50.828;4.416;2023-04-28T08:59:38;1.02;;;0.80;;
19879;SDS011;10102;50.828;4.416;2023-04-28T09:02:06;0.73;;;0.60;;
19879;SDS011;10102;50.828;4.416;2023-04-28T09:04:33;1.15;;;0.90;;
19879;SDS011;10102;50.828;4.416;2023-04-28T09:06:59;8.43;;;1.13;;
19879;SDS011;10102;50.828;4.416;2023-04-28T09:09:25;0.80;;;0.80;;
19879;SDS011;10102;50.828;4.416;2023-04-28T09:11:59;0.70;;;0.70;;
19879;SDS011;10102;50.828;4.416;2023-04-28T09:14:26;12.45;;;1.20;;
19879;SDS011;10102;50.828;4.416;2023-04-28T09:16:53;1.65;;;0.75;;
19879;SDS011;10102;50.828;4.416;2023-04-28T09:19:20;2.83;;;0.80;;
19879;SDS011;10102;50.828;4.416;2023-04-28T09:21:51;0.55;;;0.55;;
19879;SDS011;10102;50.828;4.416;2023-04-28T09:24:25;1.08;;;0.98;;
19879;SDS011;10102;50.828;4.416;2023-04-28T09:26:51;0.80;;;0.80;;
19879;SDS011;10102;50.828;4.416;2023-04-28T09:29:18;0.95;;;0.90;;
19879;SDS011;10102;50.828;4.416;2023-04-28T09:31:44;1.20;;;1.10;;
19879;SDS011;10102;50.828;4.416;2023-04-28T09:34:11;1.15;;;1.02;;
19879;SDS011;10102;50.828;4.416;2023-04-28T09:36:37;3.00;;;1.30;;
19879;SDS011;10102;50.828;4.416;2023-04-28T09:39:03;5.93;;;1.77;;
19879;SDS011;10102;50.828;4.416;2023-04-28T09:41:36;1.90;;;1.70;;
19879;SDS011;10102;50.828;4.416;2023-04-28T09:44:16;3.83;;;2.20;;
19879;SDS011;10102;50.828;4.416;2023-04-28T09:46:43;4.93;;;2.13;;
19879;SDS011;10102;50.828;4.416;2023-04-28T09:49:13;12.40;;;3.58;;
19879;SDS011;10102;50.828;4.416;2023-04-28T09:51:39;5.28;;;2.65;;
19879;SDS011;10102;50.828;4.416;2023-04-28T09:54:05;4.15;;;2.25;;
19879;SDS011;10102;50.828;4.416;2023-04-28T09:56:32;7.45;;;2.55;;
19879;SDS011;10102;50.828;4.416;2023-04-28T09:59:02;7.28;;;2.88;;
19879;SDS011;10102;50.828;4.416;2023-04-28T10:01:31;7.40;;;3.20;;
19879;SDS011;10102;50.828;4.416;2023-04-28T10:04:01;5.85;;;3.60;;
19879;SDS011;10102;50.828;4.416;2023-04-28T10:06:28;4.82;;;3.92;;
19879;SDS011;10102;50.828;4.416;2023-04-28T10:08:54;3.90;;;3.50;;
19879;SDS011;10102;50.828;4.416;2023-04-28T10:11:22;4.53;;;3.70;;
19879;SDS011;10102;50.828;4.416;2023-04-28T10:13:49;3.50;;;3.20;;
19879;SDS011;10102;50.828;4.416;2023-04-28T10:16:17;3.72;;;3.40;;
19879;SDS011;10102;50.828;4.416;2023-04-28T10:18:44;3.72;;;3.33;;
19879;SDS011;10102;50.828;4.416;2023-04-28T10:21:11;3.10;;;2.80;;
19879;SDS011;10102;50.828;4.416;2023-04-28T10:23:58;6.28;;;2.38;;
19879;SDS011;10102;50.828;4.416;2023-04-28T10:29:27;2.67;;;1.77;;
19879;SDS011;10102;50.828;4.416;2023-04-28T10:34:45;1.52;;;1.42;;
19879;SDS011;10102;50.828;4.416;2023-04-28T10:37:12;1.38;;;1.27;;
19879;SDS011;10102;50.828;4.416;2023-04-28T10:39:39;1.42;;;1.33;;
19879;SDS011;10102;50.828;4.416;2023-04-28T10:56:25;1.98;;;1.63;;
19879;SDS011;10102;50.828;4.416;2023-04-28T10:58:57;4.10;;;1.52;;
19879;SDS011;10102;50.828;4.416;2023-04-28T11:01:23;1.70;;;1.60;;
19879;SDS011;10102;50.828;4.416;2023-04-28T11:03:51;3.85;;;1.80;;
19879;SDS011;10102;50.828;4.416;2023-04-28T11:06:28;1.73;;;1.50;;
19879;SDS011;10102;50.828;4.416;2023-04-28T11:08:58;2.50;;;1.70;;
19879;SDS011;10102;50.828;4.416;2023-04-28T11:11:28;3.90;;;1.50;;
19879;SDS011;10102;50.828;4.416;2023-04-28T11:14:45;2.25;;;1.73;;
19879;SDS011;10102;50.828;4.416;2023-04-28T11:16:50;2.97;;;1.40;;
19879;SDS011;10102;50.828;4.416;2023-04-28T11:19:27;1.58;;;1.45;;
19879;SDS011;10102;50.828;4.416;2023-04-28T11:21:54;2.33;;;1.60;;
19879;SDS011;10102;50.828;4.416;2023-04-28T11:24:21;1.55;;;1.45;;
19879;SDS011;10102;50.828;4.416;2023-04-28T11:26:51;6.47;;;2.22;;
19879;SDS011;10102;50.828;4.416;2023-04-28T11:29:17;3.13;;;2.47;;
19879;SDS011;10102;50.828;4.416;2023-04-28T11:31:56;4.15;;;3.17;;
19879;SDS011;10102;50.828;4.416;2023-04-28T11:34:22;10.95;;;3.35;;
19879;SDS011;10102;50.828;4.416;2023-04-28T11:36:49;3.70;;;3.20;;
19879;SDS011;10102;50.828;4.416;2023-04-28T11:39:15;3.75;;;3.33;;
19879;SDS011;10102;50.828;4.416;2023-04-28T11:41:42;3.50;;;3.20;;
19879;SDS011;10102;50.828;4.416;2023-04-28T11:46:35;3.38;;;2.53;;
19879;SDS011;10102;50.828;4.416;2023-04-28T11:49:08;3.38;;;2.60;;
19879;SDS011;10102;50.828;4.416;2023-04-28T11:51:35;4.13;;;1.92;;
19879;SDS011;10102;50.828;4.416;2023-04-28T11:54:03;4.63;;;1.85;;
19879;SDS011;10102;50.828;4.416;2023-04-28T11:56:30;1.58;;;1.48;;
19879;SDS011;10102;50.828;4.416;2023-04-28T11:59:02;3.38;;;1.55;;
19879;SDS011;10102;50.828;4.416;2023-04-28T12:01:33;3.83;;;1.58;;
19879;SDS011;10102;50.828;4.416;2023-04-28T12:04:08;5.57;;;1.80;;
19879;SDS011;10102;50.828;4.416;2023-04-28T12:06:33;3.63;;;1.63;;
19879;SDS011;10102;50.828;4.416;2023-04-28T12:08:59;3.33;;;1.90;;
19879;SDS011;10102;50.828;4.416;2023-04-28T12:11:29;2.42;;;1.90;;
19879;SDS011;10102;50.828;4.416;2023-04-28T12:14:02;1.85;;;1.65;;
19879;SDS011;10102;50.828;4.416;2023-04-28T12:16:38;4.35;;;1.80;;
19879;SDS011;10102;50.828;4.416;2023-04-28T12:19:07;6.05;;;1.30;;
19879;SDS011;10102;50.828;4.416;2023-04-28T12:21:35;1.92;;;1.60;;
19879;SDS011;10102;50.828;4.416;2023-04-28T12:24:15;6.53;;;1.52;;
19879;SDS011;10102;50.828;4.416;2023-04-28T12:26:44;2.08;;;1.70;;
19879;SDS011;10102;50.828;4.416;2023-04-28T12:29:33;1.88;;;1.45;;
19879;SDS011;10102;50.828;4.416;2023-04-28T12:32:06;1.30;;;1.13;;
19879;SDS011;10102;50.828;4.416;2023-04-28T12:34:32;1.23;;;1.10;;
19879;SDS011;10102;50.828;4.416;2023-04-28T12:37:02;1.38;;;0.93;;
19879;SDS011;10102;50.828;4.416;2023-04-28T12:39:30;1.30;;;1.20;;
19879;SDS011;10102;50.828;4.416;2023-04-28T12:41:59;1.20;;;1.10;;
19879;SDS011;10102;50.828;4.416;2023-04-28T12:44:26;3.13;;;1.20;;
19879;SDS011;10102;50.828;4.416;2023-04-28T12:46:57;0.98;;;0.95;;
19879;SDS011;10102;50.828;4.416;2023-04-28T12:49:24;1.30;;;1.00;;
19879;SDS011;10102;50.828;4.416;2023-04-28T12:51:50;0.93;;;0.93;;
19879;SDS011;10102;50.828;4.416;2023-04-28T12:54:15;1.48;;;1.10;;
19879;SDS011;10102;50.828;4.416;2023-04-28T12:56:41;1.20;;;1.10;;
19879;SDS011;10102;50.828;4.416;2023-04-28T12:59:07;1.15;;;1.00;;
19879;SDS011;10102;50.828;4.416;2023-04-28T13:01:33;1.05;;;0.95;;
19879;SDS011;10102;50.828;4.416;2023-04-28T13:03:59;2.10;;;1.30;;
19879;SDS011;10102;50.828;4.416;2023-04-28T13:06:25;2.58;;;1.05;;
19879;SDS011;10102;50.828;4.416;2023-04-28T13:08:52;1.23;;;1.10;;
19879;SDS011;10102;50.828;4.416;2023-04-28T13:11:18;1.40;;;1.25;;
19879;SDS011;10102;50.828;4.416;2023-04-28T13:13:44;1.58;;;1.38;;
19879;SDS011;10102;50.828;4.416;2023-04-28T13:16:10;2.75;;;1.20;;
19879;SDS011;10102;50.828;4.416;2023-04-28T13:18:36;1.80;;;1.58;;
19879;SDS011;10102;50.828;4.416;2023-04-28T13:21:02;1.98;;;1.33;;
19879;SDS011;10102;50.828;4.416;2023-04-28T13:23:29;4.47;;;1.25;;
19879;SDS011;10102;50.828;4.416;2023-04-28T13:25:55;1.60;;;1.50;;
19879;SDS011;10102;50.828;4.416;2023-04-28T13:28:21;1.55;;;1.23;;
19879;SDS011;10102;50.828;4.416;2023-04-28T13:30:47;1.27;;;1.08;;
19879;SDS011;10102;50.828;4.416;2023-04-28T13:33:12;1.58;;;1.38;;
19879;SDS011;10102;50.828;4.416;2023-04-28T13:35:38;3.25;;;1.40;;
19879;SDS011;10102;50.828;4.416;2023-04-28T13:38:04;2.20;;;1.73;;
19879;SDS011;10102;50.828;4.416;2023-04-28T13:40:30;1.73;;;1.20;;
19879;SDS011;10102;50.828;4.416;2023-04-28T13:42:57;4.03;;;1.80;;
19879;SDS011;10102;50.828;4.416;2023-04-28T13:45:23;2.72;;;1.30;;
19879;SDS011;10102;50.828;4.416;2023-04-28T13:47:50;4.20;;;1.10;;
19879;SDS011;10102;50.828;4.416;2023-04-28T13:50:16;2.35;;;1.10;;
19879;SDS011;10102;50.828;4.416;2023-04-28T13:52:41;1.38;;;1.27;;
19879;SDS011;10102;50.828;4.416;2023-04-28T13:55:07;1.17;;;1.08;;
19879;SDS011;10102;50.828;4.416;2023-04-28T13:57:33;1.88;;;1.20;;
19879;SDS011;10102;50.828;4.416;2023-04-28T13:59:59;1.20;;;1.10;;
19879;SDS011;10102;50.828;4.416;2023-04-28T14:02:25;2.15;;;1.23;;
19879;SDS011;10102;50.828;4.416;2023-04-28T14:04:51;3.38;;;1.30;;
19879;SDS011;10102;50.828;4.416;2023-04-28T14:07:17;1.85;;;1.10;;
19879;SDS011;10102;50.828;4.416;2023-04-28T14:09:43;6.40;;;1.30;;
19879;SDS011;10102;50.828;4.416;2023-04-28T14:12:09;1.50;;;1.40;;
19879;SDS011;10102;50.828;4.416;2023-04-28T14:14:35;1.92;;;1.00;;
19879;SDS011;10102;50.828;4.416;2023-04-28T14:17:01;1.95;;;1.48;;
19879;SDS011;10102;50.828;4.416;2023-04-28T14:19:27;2.08;;;1.40;;
19879;SDS011;10102;50.828;4.416;2023-04-28T14:21:53;3.70;;;1.52;;
19879;SDS011;10102;50.828;4.416;2023-04-28T14:24:19;7.80;;;1.42;;
19879;SDS011;10102;50.828;4.416;2023-04-28T14:26:44;1.50;;;1.10;;
19879;SDS011;10102;50.828;4.416;2023-04-28T14:29:13;2.03;;;1.17;;
19879;SDS011;10102;50.828;4.416;2023-04-28T14:31:39;5.32;;;1.25;;
19879;SDS011;10102;50.828;4.416;2023-04-28T14:34:06;1.05;;;0.90;;
19879;SDS011;10102;50.828;4.416;2023-04-28T14:36:32;1.02;;;0.90;;
19879;SDS011;10102;50.828;4.416;2023-04-28T14:38:58;4.10;;;1.27;;
19879;SDS011;10102;50.828;4.416;2023-04-28T14:41:24;3.88;;;0.90;;
19879;SDS011;10102;50.828;4.416;2023-04-28T14:43:50;3.33;;;1.38;;
19879;SDS011;10102;50.828;4.416;2023-04-28T14:46:16;3.80;;;1.23;;
19879;SDS011;10102;50.828;4.416;2023-04-28T14:48:47;4.05;;;1.58;;
19879;SDS011;10102;50.828;4.416;2023-04-28T14:51:14;1.85;;;1.35;;
19879;SDS011;10102;50.828;4.416;2023-04-28T14:53:39;1.05;;;0.90;;
19879;SDS011;10102;50.828;4.416;2023-04-28T14:56:06;2.13;;;0.85;;